createdAt,value
2017-12-23T00:05:04.816Z,6.90
2017-12-23T00:10:33.781Z,6.47
2017-12-23T00:16:01.981Z,7.93
2017-12-23T00:21:30.130Z,5.83
2017-12-23T00:26:59.101Z,7.50
2017-12-23T00:32:27.316Z,6.13
2017-12-23T00:37:55.492Z,8.20
2017-12-23T00:43:23.663Z,7.43
2017-12-23T00:48:51.863Z,9.57
2017-12-23T00:54:20.805Z,8.50
2017-12-23T00:59:49.762Z,9.30
2017-12-23T01:05:18.274Z,9.47
2017-12-23T01:10:47.473Z,10.30
2017-12-23T01:16:15.919Z,10.30
2017-12-23T01:21:44.330Z,9.83
2017-12-23T01:27:12.795Z,10.70
2017-12-23T01:32:41.120Z,9.07
2017-12-23T01:38:09.323Z,10.70
2017-12-23T01:43:37.497Z,9.70
2017-12-23T01:49:05.709Z,9.03
2017-12-23T01:54:34.646Z,9.63
2017-12-23T02:00:03.597Z,8.70
2017-12-23T02:05:31.791Z,8.47
2017-12-23T02:10:59.972Z,10.90
2017-12-23T02:16:29.120Z,10.30
2017-12-23T02:22:00.993Z,9.23
2017-12-23T02:27:29.208Z,9.53
2017-12-23T02:32:57.394Z,9.67
2017-12-23T02:38:25.572Z,10.20
2017-12-23T02:43:53.770Z,9.63
2017-12-23T02:49:21.961Z,9.30
2017-12-23T02:54:51.145Z,11.53
2017-12-23T03:00:19.320Z,11.03
2017-12-23T03:05:48.550Z,8.20
2017-12-23T03:11:16.746Z,8.80
2017-12-23T03:16:45.034Z,9.30
2017-12-23T03:22:15.949Z,10.40
2017-12-23T03:27:44.158Z,9.77
2017-12-23T03:33:12.348Z,8.90
2017-12-23T03:38:42.122Z,7.17
2017-12-23T03:44:10.308Z,11.00
2017-12-23T03:49:38.506Z,10.87
2017-12-23T03:55:07.856Z,11.53
2017-12-23T04:00:36.309Z,10.17
2017-12-23T04:06:05.507Z,11.10
2017-12-23T04:11:33.706Z,13.70
2017-12-23T04:17:01.914Z,12.40
2017-12-23T04:22:30.114Z,11.93
2017-12-23T04:27:59.065Z,12.50
2017-12-23T04:33:28.018Z,10.67
2017-12-23T04:38:56.209Z,12.40
2017-12-23T04:44:25.179Z,11.07
2017-12-23T04:49:53.386Z,11.07
2017-12-23T04:55:21.569Z,9.80
2017-12-23T05:00:49.765Z,9.40
2017-12-23T05:06:17.972Z,10.47
2017-12-23T05:11:46.176Z,9.60
2017-12-23T05:17:21.949Z,10.40
2017-12-23T05:22:50.932Z,11.20
2017-12-23T05:28:19.148Z,9.80
2017-12-23T05:33:47.398Z,9.73
2017-12-23T05:39:15.596Z,10.53
2017-12-23T05:44:49.453Z,9.37
2017-12-23T05:50:18.611Z,10.80
2017-12-23T05:55:46.808Z,10.43
2017-12-23T06:01:14.996Z,9.83
2017-12-23T06:06:44.160Z,10.57
2017-12-23T06:12:12.364Z,9.80
2017-12-23T06:17:40.586Z,10.50
2017-12-23T06:23:08.764Z,9.00
2017-12-23T06:28:40.628Z,9.90
2017-12-23T06:34:08.826Z,9.17
2017-12-23T06:39:37.795Z,8.30
2017-12-23T06:45:06.942Z,7.13
2017-12-23T06:50:35.197Z,9.37
2017-12-23T06:56:03.524Z,9.03
2017-12-23T07:01:31.740Z,8.80
2017-12-23T07:06:59.948Z,7.40
2017-12-23T07:12:29.066Z,7.87
2017-12-23T07:17:57.265Z,8.47
2017-12-23T07:23:28.191Z,8.37
2017-12-23T07:28:56.401Z,8.67
2017-12-23T07:34:24.585Z,9.97
2017-12-23T07:39:53.565Z,8.57
2017-12-23T07:45:22.393Z,8.97
2017-12-23T07:50:50.601Z,9.97
2017-12-23T07:56:18.796Z,8.53
2017-12-23T08:01:47.747Z,8.50
2017-12-23T08:07:16.035Z,11.27
2017-12-23T08:12:44.319Z,9.83
2017-12-23T08:18:12.539Z,9.43
2017-12-23T08:23:41.497Z,10.10
2017-12-23T08:29:09.690Z,8.30
2017-12-23T08:34:37.888Z,8.10
2017-12-23T08:40:06.929Z,7.70
2017-12-23T08:45:35.868Z,7.43
2017-12-23T08:51:04.101Z,9.13
2017-12-23T08:56:32.300Z,8.73
2017-12-23T09:02:01.245Z,7.30
2017-12-23T09:07:30.236Z,5.77
2017-12-23T09:12:58.422Z,7.57
2017-12-23T09:18:26.679Z,7.23
2017-12-23T09:23:54.876Z,6.40
2017-12-23T09:29:23.099Z,8.37
2017-12-23T09:34:51.303Z,6.70
2017-12-23T09:40:20.264Z,5.73
2017-12-23T09:45:49.409Z,7.30
2017-12-23T09:51:17.612Z,8.03
2017-12-23T09:56:46.028Z,6.73
2017-12-23T10:02:14.235Z,7.13
2017-12-23T10:07:45.170Z,6.40
2017-12-23T10:13:13.339Z,5.90
2017-12-23T10:18:42.629Z,7.20
2017-12-23T10:24:10.835Z,7.00
2017-12-23T10:29:39.029Z,6.13
2017-12-23T10:35:07.982Z,7.57
2017-12-23T10:40:36.648Z,7.40
2017-12-23T10:46:05.698Z,6.13
2017-12-23T10:51:33.953Z,6.20
2017-12-23T10:57:02.126Z,7.60
2017-12-23T11:02:30.338Z,6.20
2017-12-23T11:08:00.400Z,5.77
2017-12-23T11:13:28.596Z,4.50
2017-12-23T11:18:57.572Z,4.60
2017-12-23T11:24:25.970Z,6.03
2017-12-23T11:29:54.152Z,6.70
2017-12-23T11:35:24.341Z,5.60
2017-12-23T11:40:53.297Z,6.70
2017-12-23T11:46:21.477Z,5.03
2017-12-23T11:51:50.667Z,4.70
2017-12-23T11:57:18.842Z,5.10
2017-12-23T12:02:48.063Z,5.03
2017-12-23T12:08:16.292Z,5.43
2017-12-23T12:13:44.571Z,5.07
2017-12-23T12:19:12.818Z,4.60
2017-12-23T12:24:41.033Z,3.57
2017-12-23T12:30:09.217Z,4.70
2017-12-23T12:35:38.246Z,4.67
2017-12-23T12:41:06.705Z,4.10
2017-12-23T12:46:34.894Z,3.60
2017-12-23T12:52:03.853Z,3.50
2017-12-23T12:57:33.512Z,3.57
2017-12-23T13:03:01.701Z,3.13
2017-12-23T13:08:31.058Z,3.07
2017-12-23T13:13:59.234Z,3.60
2017-12-23T13:19:27.409Z,3.00
2017-12-23T13:24:56.396Z,3.30
2017-12-23T13:30:25.444Z,4.10
2017-12-23T13:35:53.631Z,3.10
2017-12-23T13:41:21.806Z,3.60
2017-12-23T13:46:49.988Z,3.30
2017-12-23T13:52:19.237Z,3.50
2017-12-23T13:57:47.430Z,4.00
2017-12-23T14:03:15.654Z,3.77
2017-12-23T14:08:43.842Z,3.20
2017-12-23T14:14:12.037Z,3.53
2017-12-23T14:19:41.172Z,3.67
2017-12-23T14:25:09.645Z,4.10
2017-12-23T14:30:37.860Z,3.90
2017-12-23T14:36:06.815Z,3.60
2017-12-23T14:41:35.016Z,3.33
2017-12-23T14:47:03.972Z,3.40
2017-12-23T14:52:32.170Z,3.57
2017-12-23T14:58:00.349Z,3.63
2017-12-23T15:03:28.556Z,3.83
2017-12-23T15:08:56.738Z,2.80
2017-12-23T15:14:25.725Z,2.97
2017-12-23T15:19:53.950Z,3.87
2017-12-23T15:25:22.161Z,4.33
2017-12-23T15:30:50.474Z,4.40
2017-12-23T15:36:19.648Z,4.00
2017-12-23T15:41:47.953Z,3.60
2017-12-23T15:47:16.178Z,4.50
2017-12-23T15:52:44.400Z,3.90
2017-12-23T15:58:12.616Z,5.10
2017-12-23T16:03:40.792Z,3.57
2017-12-23T16:09:09.743Z,3.10
2017-12-23T16:14:38.709Z,3.00
2017-12-23T16:20:06.894Z,3.93
2017-12-23T16:25:35.125Z,4.20
2017-12-23T16:31:04.066Z,4.03
2017-12-23T16:36:32.280Z,4.20
2017-12-23T16:42:00.496Z,4.70
2017-12-23T16:47:29.619Z,5.20
2017-12-23T16:52:58.897Z,5.50
2017-12-23T16:58:27.121Z,6.10
2017-12-23T17:03:55.335Z,6.30
2017-12-23T17:09:24.427Z,5.93
2017-12-23T17:14:54.577Z,4.90
2017-12-23T17:20:22.764Z,5.50
2017-12-23T17:25:51.706Z,5.40
2017-12-23T17:31:19.915Z,5.73
2017-12-23T17:36:49.105Z,5.57
2017-12-23T17:42:18.240Z,5.50
2017-12-23T17:47:47.253Z,6.37
2017-12-23T17:53:16.298Z,5.67
2017-12-23T17:58:44.501Z,7.53
2017-12-23T18:04:14.404Z,6.40
2017-12-23T18:09:43.594Z,6.20
2017-12-23T18:15:16.213Z,4.90
2017-12-23T18:20:44.510Z,5.33
2017-12-23T18:26:13.728Z,6.70
2017-12-23T18:31:43.628Z,7.60
2017-12-23T18:37:11.845Z,7.53
2017-12-23T18:42:40.157Z,7.53
2017-12-23T18:48:08.374Z,6.57
2017-12-23T18:53:36.600Z,7.17
2017-12-23T18:59:04.813Z,8.60
2017-12-23T19:04:33.018Z,6.60
2017-12-23T19:10:01.214Z,6.50
2017-12-23T19:15:32.145Z,8.23
2017-12-23T19:21:00.382Z,5.40
2017-12-23T19:26:28.641Z,7.53
2017-12-23T19:31:57.613Z,7.00
2017-12-23T19:37:25.790Z,6.27
2017-12-23T19:42:54.737Z,6.33
2017-12-23T19:48:24.651Z,4.97
2017-12-23T19:53:52.831Z,5.67
2017-12-23T19:59:21.224Z,4.30
2017-12-23T20:04:50.335Z,5.40
2017-12-23T20:10:18.558Z,4.83
2017-12-23T20:15:46.808Z,6.43
2017-12-23T20:21:15.243Z,8.73
2017-12-23T20:26:44.316Z,7.00
2017-12-23T20:32:12.621Z,9.43
2017-12-23T20:37:41.627Z,6.97
2017-12-23T20:43:09.822Z,9.30
2017-12-23T20:48:38.011Z,9.63
2017-12-23T20:54:06.206Z,9.73
2017-12-23T20:59:34.514Z,8.40
2017-12-23T21:05:03.502Z,11.10
2017-12-23T21:10:32.800Z,8.83
2017-12-23T21:16:03.872Z,9.53
2017-12-23T21:21:32.269Z,7.20
2017-12-23T21:27:00.675Z,8.87
2017-12-23T21:32:29.661Z,9.13
2017-12-23T21:37:57.943Z,8.93
2017-12-23T21:43:26.207Z,7.60
2017-12-23T21:48:54.483Z,11.57
2017-12-23T21:54:22.669Z,9.70
2017-12-23T21:59:50.872Z,8.87
2017-12-23T22:05:20.057Z,9.70
2017-12-23T22:10:48.310Z,9.67
2017-12-23T22:16:17.466Z,8.70
2017-12-23T22:21:45.689Z,10.00
2017-12-23T22:27:13.900Z,8.23
2017-12-23T22:32:44.207Z,9.63
2017-12-23T22:38:13.424Z,8.63
2017-12-23T22:43:41.673Z,8.70
2017-12-23T22:49:09.867Z,8.40
2017-12-23T22:54:38.081Z,9.63
2017-12-23T23:00:07.983Z,7.30
2017-12-23T23:05:36.208Z,7.20
2017-12-23T23:11:04.414Z,8.60
2017-12-23T23:16:32.616Z,9.60
2017-12-23T23:22:00.809Z,9.90
2017-12-23T23:27:29.023Z,8.80
2017-12-23T23:32:57.394Z,9.27
2017-12-23T23:38:25.569Z,7.57
2017-12-23T23:43:53.750Z,7.77
2017-12-23T23:49:21.930Z,8.90
2017-12-23T23:54:50.886Z,8.83
